Time;durP1;ratioP1;P1;durP2;ratioP2;P2;SDS_P1;SDS_P2;PMS_P1;PMS_P2;Temp;Humidity;BMP_temperature;BMP_pressure;BME280_temperature;BME280_humidity;BME280_pressure;Samples;Min_cycle;Max_cycle;Signal;HPM_P1;HPM_P2
2022/05/19 00:01:52;;;;;;;11.50;9.48;;;16.80;99.90;;;;;;4968217;28;20801;-83
2022/05/19 00:04:19;;;;;;;10.38;9.35;;;16.90;99.90;;;;;;4967309;28;20204;-83
2022/05/19 00:06:46;;;;;;;13.35;9.05;;;16.90;99.90;;;;;;4948546;28;20228;-81
2022/05/19 00:09:13;;;;;;;11.32;9.77;;;16.90;99.90;;;;;;4948399;29;20212;-80
2022/05/19 00:11:42;;;;;;;10.00;9.00;;;16.90;99.90;;;;;;4947661;28;20211;-80
2022/05/19 00:14:09;;;;;;;11.60;9.45;;;16.90;99.90;;;;;;4947367;29;20221;-80
2022/05/19 00:16:38;;;;;;;10.93;9.35;;;16.90;99.90;;;;;;4947315;29;20204;-81
2022/05/19 00:19:05;;;;;;;12.35;9.38;;;17.00;99.90;;;;;;4947222;28;20217;-82
2022/05/19 00:21:32;;;;;;;10.10;9.10;;;16.90;99.90;;;;;;4947664;29;20205;-82
2022/05/19 00:23:59;;;;;;;11.10;9.85;;;17.00;99.90;;;;;;4947759;28;20213;-80
2022/05/19 00:26:26;;;;;;;11.18;8.60;;;16.90;99.90;;;;;;4947352;28;20209;-82
2022/05/19 00:28:53;;;;;;;11.30;8.93;;;16.90;99.90;;;;;;4947420;28;20212;-81
2022/05/19 00:31:19;;;;;;;12.52;9.25;;;16.90;99.90;;;;;;4947154;29;20235;-80
2022/05/19 00:33:48;;;;;;;10.30;8.80;;;16.90;99.90;;;;;;4946692;28;20642;-82
2022/05/19 00:36:18;;;;;;;10.00;8.88;;;16.90;99.90;;;;;;4946552;29;20217;-82
2022/05/19 00:38:45;;;;;;;11.20;8.52;;;16.80;99.90;;;;;;4947750;28;20237;-85
2022/05/19 00:41:14;;;;;;;11.23;9.27;;;16.80;99.90;;;;;;4949578;29;20205;-82
2022/05/19 00:43:44;;;;;;;9.55;8.13;;;16.80;99.90;;;;;;4948435;28;20220;-84
2022/05/19 00:46:16;;;;;;;10.70;9.60;;;16.80;99.90;;;;;;4947892;29;20205;-81
2022/05/19 00:48:48;;;;;;;10.40;9.35;;;16.80;99.90;;;;;;4948089;29;20741;-81
2022/05/19 00:51:18;;;;;;;10.32;9.23;;;16.80;99.90;;;;;;4946168;28;20209;-82
2022/05/19 00:53:48;;;;;;;10.93;9.82;;;16.80;99.90;;;;;;4946395;29;20201;-82
2022/05/19 00:56:19;;;;;;;14.77;10.35;;;16.80;99.90;;;;;;4946518;28;20212;-82
2022/05/19 00:58:50;;;;;;;11.25;9.82;;;16.80;99.90;;;;;;4946745;29;20655;-81
2022/05/19 01:01:18;;;;;;;10.45;9.30;;;16.80;99.90;;;;;;4947034;28;20296;-82
2022/05/19 01:03:50;;;;;;;12.18;10.48;;;16.80;99.90;;;;;;4946546;28;20213;-82
2022/05/19 01:06:20;;;;;;;15.45;10.98;;;16.80;99.90;;;;;;4947002;29;20216;-83
2022/05/19 01:08:52;;;;;;;14.52;11.13;;;16.80;99.90;;;;;;4947476;29;20232;-81
2022/05/19 01:11:19;;;;;;;11.98;9.80;;;16.90;99.90;;;;;;4946404;28;20220;-84
2022/05/19 01:13:46;;;;;;;12.32;11.00;;;16.90;99.90;;;;;;4946536;29;20212;-81
2022/05/19 01:16:14;;;;;;;12.75;11.02;;;16.90;99.90;;;;;;4946967;28;20217;-83
2022/05/19 01:18:42;;;;;;;15.40;11.80;;;16.90;99.90;;;;;;4946543;28;20209;-83
2022/05/19 01:21:13;;;;;;;12.95;11.10;;;17.00;99.90;;;;;;4964863;28;20208;-81
2022/05/19 01:23:50;;;;;;;12.93;10.98;;;17.00;99.90;;;;;;4970291;28;20244;-81
2022/05/19 01:26:24;;;;;;;13.80;11.70;;;17.00;99.90;;;;;;4961559;28;20290;-79
2022/05/19 01:28:52;;;;;;;12.55;11.25;;;17.00;99.90;;;;;;4950972;28;20202;-80
2022/05/19 01:31:35;;;;;;;14.05;12.32;;;17.00;99.90;;;;;;4950940;29;20209;-82
2022/05/19 01:34:04;;;;;;;15.77;11.90;;;17.10;99.90;;;;;;4951483;29;20208;-80
2022/05/19 01:36:31;;;;;;;13.32;11.38;;;17.10;99.90;;;;;;4963910;28;20219;-80
2022/05/19 01:39:01;;;;;;;13.75;11.95;;;17.10;99.90;;;;;;4968978;28;20228;-79
2022/05/19 01:41:38;;;;;;;14.13;11.70;;;17.10;99.90;;;;;;4967481;28;20205;-80
2022/05/19 01:44:18;;;;;;;15.82;13.27;;;17.00;99.90;;;;;;4950448;29;20193;-80
2022/05/19 01:46:49;;;;;;;18.35;13.20;;;17.10;99.90;;;;;;4949775;29;20220;-81
2022/05/19 01:49:21;;;;;;;14.35;12.93;;;17.10;99.90;;;;;;4950304;28;20692;-81
2022/05/19 01:51:54;;;;;;;14.05;11.32;;;17.10;99.90;;;;;;4950772;28;20201;-80
2022/05/19 01:54:26;;;;;;;12.52;11.23;;;17.10;99.90;;;;;;4949756;28;20236;-79
2022/05/19 01:56:58;;;;;;;17.92;13.43;;;17.10;99.90;;;;;;4949902;29;20194;-80
2022/05/19 01:59:34;;;;;;;14.15;12.68;;;17.10;99.90;;;;;;4950593;29;20196;-82
2022/05/19 02:02:08;;;;;;;13.95;12.52;;;17.20;99.90;;;;;;4962440;28;20505;-82
2022/05/19 02:04:40;;;;;;;16.88;14.27;;;17.20;99.90;;;;;;4969650;28;20196;-80
2022/05/19 02:07:10;;;;;;;16.73;14.77;;;17.20;99.90;;;;;;4970195;28;20200;-81
2022/05/19 02:09:42;;;;;;;19.73;14.48;;;17.30;99.90;;;;;;4970866;28;20204;-81
2022/05/19 02:12:09;;;;;;;14.73;13.07;;;17.30;99.90;;;;;;4953360;28;20224;-81
2022/05/19 02:14:45;;;;;;;16.73;13.40;;;17.30;99.90;;;;;;4950600;29;20259;-82
2022/05/19 02:17:16;;;;;;;15.90;13.25;;;17.30;99.90;;;;;;4950926;29;20196;-82
2022/05/19 02:19:46;;;;;;;16.67;14.93;;;17.30;99.90;;;;;;4954418;28;20310;-81
2022/05/19 02:22:17;;;;;;;18.75;15.60;;;17.40;99.90;;;;;;4963908;28;20245;-81
2022/05/19 02:24:51;;;;;;;16.70;13.93;;;17.40;99.90;;;;;;4952371;28;20198;-83
2022/05/19 02:27:34;;;;;;;18.42;14.45;;;17.40;99.90;;;;;;4950510;29;20891;-82
2022/05/19 02:30:07;;;;;;;17.08;13.73;;;17.40;99.90;;;;;;4951063;28;20205;-82
2022/05/19 02:32:35;;;;;;;18.40;16.50;;;17.40;99.90;;;;;;4951232;29;20201;-81
2022/05/19 02:35:02;;;;;;;17.23;13.55;;;17.40;99.90;;;;;;4950614;29;20233;-82
2022/05/19 02:37:29;;;;;;;15.15;13.65;;;17.40;99.90;;;;;;4950836;28;20889;-81
2022/05/19 02:39:55;;;;;;;18.50;16.02;;;17.40;99.90;;;;;;4951007;28;20216;-81
2022/05/19 02:42:22;;;;;;;19.27;16.92;;;17.40;99.90;;;;;;4950397;29;20202;-82
2022/05/19 02:44:49;;;;;;;16.23;13.90;;;17.50;99.90;;;;;;4949973;29;20818;-82
2022/05/19 02:47:17;;;;;;;15.30;13.18;;;17.50;99.90;;;;;;4950367;29;20955;-82
2022/05/19 02:49:44;;;;;;;18.02;14.65;;;17.50;99.90;;;;;;4948929;28;20279;-81
2022/05/19 02:52:10;;;;;;;16.60;14.77;;;17.50;99.90;;;;;;4949025;28;20689;-81
2022/05/19 02:54:37;;;;;;;15.05;13.55;;;17.50;99.90;;;;;;4948988;29;20228;-80
2022/05/19 02:57:05;;;;;;;17.33;14.77;;;17.50;99.90;;;;;;4949029;29;20193;-82
2022/05/19 02:59:32;;;;;;;14.65;13.15;;;17.50;99.90;;;;;;4948933;29;20204;-80
2022/05/19 03:01:58;;;;;;;16.35;14.45;;;17.50;99.90;;;;;;4948580;28;20217;-82
2022/05/19 03:04:26;;;;;;;19.23;17.25;;;17.50;99.90;;;;;;4949241;29;20225;-81
2022/05/19 03:06:53;;;;;;;19.75;15.75;;;17.50;99.90;;;;;;4948903;29;20224;-81
2022/05/19 03:09:21;;;;;;;18.10;13.35;;;17.60;99.90;;;;;;4948199;28;20209;-81
2022/05/19 03:11:48;;;;;;;17.38;15.18;;;17.60;99.90;;;;;;4947845;28;20232;-81
2022/05/19 03:14:15;;;;;;;19.25;17.35;;;17.60;99.90;;;;;;4948629;29;20638;-82
2022/05/19 03:16:42;;;;;;;20.83;16.30;;;17.60;99.90;;;;;;4948405;28;20997;-80
2022/05/19 03:19:10;;;;;;;26.35;19.58;;;17.60;99.90;;;;;;4949125;29;20209;-79
2022/05/19 03:21:38;;;;;;;26.73;21.20;;;17.60;99.90;;;;;;4948159;28;20232;-80
2022/05/19 03:24:05;;;;;;;24.55;20.15;;;17.70;99.90;;;;;;4947859;28;20209;-81
2022/05/19 03:26:32;;;;;;;26.45;22.63;;;17.70;99.90;;;;;;4948616;29;20598;-82
2022/05/19 03:28:59;;;;;;;23.13;20.23;;;17.80;99.90;;;;;;4948201;29;20197;-81
2022/05/19 03:31:26;;;;;;;25.63;21.70;;;17.80;99.90;;;;;;4948494;28;20214;-80
2022/05/19 03:33:53;;;;;;;25.17;21.75;;;17.90;99.90;;;;;;4947612;29;20216;-80
2022/05/19 03:36:20;;;;;;;24.50;20.65;;;17.90;99.90;;;;;;4947680;28;20228;-79
2022/05/19 03:38:48;;;;;;;29.35;22.40;;;18.00;99.90;;;;;;4948060;28;20229;-84
2022/05/19 03:41:15;;;;;;;29.42;22.92;;;18.00;99.90;;;;;;4948547;28;20218;-81
2022/05/19 03:43:42;;;;;;;26.55;21.90;;;18.00;99.90;;;;;;4948497;29;20209;-80
2022/05/19 03:46:09;;;;;;;24.15;21.50;;;18.00;99.90;;;;;;4967540;28;20211;-80
2022/05/19 03:48:36;;;;;;;22.08;19.65;;;18.00;99.90;;;;;;4969830;28;20220;-80
2022/05/19 03:51:05;;;;;;;24.20;19.13;;;18.00;99.90;;;;;;4949762;28;20220;-81
2022/05/19 03:53:32;;;;;;;20.33;18.05;;;17.90;99.90;;;;;;4947725;28;20224;-77
2022/05/19 03:56:00;;;;;;;25.17;18.92;;;17.90;99.90;;;;;;4948958;28;20226;-82
2022/05/19 03:58:27;;;;;;;40.10;25.08;;;17.90;99.90;;;;;;4948073;29;20201;-81
2022/05/19 04:00:54;;;;;;;41.08;30.05;;;18.00;99.90;;;;;;4947878;28;20213;-81
2022/05/19 04:03:20;;;;;;;41.47;30.20;;;18.00;99.90;;;;;;4947566;29;20610;-80
2022/05/19 04:05:47;;;;;;;44.60;26.88;;;17.90;99.90;;;;;;4947414;29;20197;-79
2022/05/19 04:08:14;;;;;;;34.40;25.63;;;17.80;99.90;;;;;;4946498;29;20213;-80
2022/05/19 04:10:44;;;;;;;33.83;23.88;;;17.80;99.90;;;;;;4948065;28;20667;-80
2022/05/19 04:13:13;;;;;;;25.67;20.65;;;17.80;99.90;;;;;;4947179;29;20190;-81
2022/05/19 04:15:39;;;;;;;21.17;18.90;;;17.70;99.90;;;;;;4946943;29;20633;-83
2022/05/19 04:18:07;;;;;;;33.70;26.33;;;17.70;99.90;;;;;;4948901;28;20213;-86
2022/05/19 04:20:35;;;;;;;34.80;26.45;;;17.70;99.90;;;;;;4950064;29;20216;-83
2022/05/19 04:23:02;;;;;;;30.90;23.50;;;17.70;99.90;;;;;;4947686;29;20256;-80
2022/05/19 04:25:30;;;;;;;30.85;27.55;;;17.70;99.90;;;;;;4948813;28;20205;-80
2022/05/19 04:27:57;;;;;;;31.08;27.00;;;17.70;99.90;;;;;;4947892;28;20220;-82
2022/05/19 04:30:26;;;;;;;26.52;23.10;;;17.70;99.90;;;;;;4948852;29;20212;-80
2022/05/19 04:32:53;;;;;;;30.20;23.42;;;17.60;99.90;;;;;;4948253;29;20216;-81
2022/05/19 04:35:20;;;;;;;22.40;20.00;;;17.60;99.90;;;;;;4947471;28;20240;-80
2022/05/19 04:37:47;;;;;;;18.60;16.63;;;17.60;99.90;;;;;;4949533;28;20229;-83
2022/05/19 04:40:16;;;;;;;25.10;22.20;;;17.60;99.90;;;;;;4949303;29;20264;-79
2022/05/19 04:42:44;;;;;;;25.15;22.48;;;17.60;99.90;;;;;;4948744;29;20206;-80
2022/05/19 04:45:13;;;;;;;30.83;25.77;;;17.60;99.90;;;;;;4948648;28;20209;-82
2022/05/19 04:47:41;;;;;;;24.05;19.35;;;17.60;99.90;;;;;;4948446;29;20201;-84
2022/05/19 04:50:09;;;;;;;19.80;17.77;;;17.60;99.90;;;;;;4947994;28;20213;-81
2022/05/19 04:52:37;;;;;;;21.98;19.65;;;17.60;99.90;;;;;;4948241;28;20220;-80
2022/05/19 04:55:04;;;;;;;23.52;21.02;;;17.60;99.90;;;;;;4946533;28;20236;-80
2022/05/19 04:57:31;;;;;;;25.63;21.63;;;17.70;99.90;;;;;;4949429;29;20530;-84
2022/05/19 04:59:58;;;;;;;27.10;24.23;;;17.70;99.90;;;;;;4948504;28;20197;-80
2022/05/19 05:02:25;;;;;;;31.58;23.52;;;17.70;99.90;;;;;;4948429;29;20313;-78
2022/05/19 05:04:53;;;;;;;26.90;22.30;;;17.70;99.90;;;;;;4947178;28;20212;-83
2022/05/19 05:07:19;;;;;;;20.25;18.08;;;17.70;99.90;;;;;;4948438;29;20393;-81
2022/05/19 05:09:46;;;;;;;22.38;18.35;;;17.70;99.90;;;;;;4946205;29;20201;-83
2022/05/19 05:12:13;;;;;;;23.55;20.63;;;17.70;99.90;;;;;;4946863;29;20216;-79
2022/05/19 05:14:40;;;;;;;27.70;21.95;;;17.70;99.90;;;;;;4946209;28;20217;-79
2022/05/19 05:17:06;;;;;;;27.70;24.65;;;17.70;99.90;;;;;;4945278;28;20229;-78
2022/05/19 05:19:33;;;;;;;27.42;24.48;;;17.80;99.90;;;;;;4947765;29;20216;-80
2022/05/19 05:22:02;;;;;;;25.15;22.48;;;17.80;99.90;;;;;;4947362;28;20244;-79
2022/05/19 05:24:29;;;;;;;21.90;19.58;;;17.80;99.90;;;;;;4946217;29;20201;-78
2022/05/19 05:26:55;;;;;;;28.98;25.52;;;17.80;99.90;;;;;;4946932;29;20213;-79
2022/05/19 05:29:22;;;;;;;25.38;22.48;;;17.80;99.90;;;;;;4946500;29;20212;-79
2022/05/19 05:31:49;;;;;;;26.92;23.33;;;17.80;99.90;;;;;;4954007;28;20913;-81
2022/05/19 05:34:16;;;;;;;27.58;24.13;;;17.80;99.90;;;;;;4966287;28;20208;-80
2022/05/19 05:36:43;;;;;;;34.97;23.90;;;17.80;99.90;;;;;;4958221;28;20232;-81
2022/05/19 05:39:11;;;;;;;34.53;25.33;;;17.80;99.90;;;;;;4948325;28;20670;-82
2022/05/19 05:41:38;;;;;;;25.88;20.10;;;17.90;99.90;;;;;;4951576;28;20212;-85
2022/05/19 05:44:05;;;;;;;28.70;22.50;;;17.90;99.90;;;;;;4950875;29;20238;-86
2022/05/19 05:46:32;;;;;;;28.05;24.17;;;17.90;99.90;;;;;;4950012;29;20201;-84
2022/05/19 05:48:59;;;;;;;30.58;26.70;;;18.00;99.90;;;;;;4948998;28;20209;-81
2022/05/19 05:51:26;;;;;;;27.83;24.92;;;18.00;99.90;;;;;;4949712;29;20209;-84
2022/05/19 05:53:53;;;;;;;34.28;27.75;;;18.00;99.90;;;;;;4950523;29;20206;-85
2022/05/19 05:56:23;;;;;;;33.97;28.13;;;18.10;99.90;;;;;;4953467;29;20228;-82
2022/05/19 05:58:50;;;;;;;32.35;27.40;;;18.10;99.90;;;;;;4955719;28;20210;-87
2022/05/19 06:01:18;;;;;;;33.15;27.38;;;18.10;99.90;;;;;;4951308;29;20982;-83
2022/05/19 06:03:45;;;;;;;25.88;22.42;;;18.20;99.90;;;;;;4949728;28;20212;-82
2022/05/19 06:06:12;;;;;;;24.80;22.33;;;18.20;99.90;;;;;;4949544;28;20205;-82
2022/05/19 06:08:39;;;;;;;30.88;26.05;;;18.30;99.90;;;;;;4951805;28;20541;-82
2022/05/19 06:11:07;;;;;;;34.10;26.80;;;18.30;99.90;;;;;;4951087;28;20506;-87
2022/05/19 06:13:36;;;;;;;33.10;24.40;;;18.40;99.90;;;;;;4952569;29;20681;-80
2022/05/19 06:16:02;;;;;;;28.10;24.70;;;18.40;99.90;;;;;;4952398;29;20225;-85
2022/05/19 06:18:29;;;;;;;32.60;25.13;;;18.50;99.90;;;;;;4952131;29;20208;-81
2022/05/19 06:20:57;;;;;;;35.25;29.17;;;18.50;99.90;;;;;;4950162;28;20408;-78
2022/05/19 06:23:24;;;;;;;28.63;24.60;;;18.60;99.90;;;;;;4951041;29;20241;-79
2022/05/19 06:25:51;;;;;;;29.42;25.52;;;18.60;99.90;;;;;;4950820;28;20945;-82
2022/05/19 06:28:17;;;;;;;29.02;26.05;;;18.60;99.90;;;;;;4950098;28;20213;-82
2022/05/19 06:30:46;;;;;;;33.67;27.35;;;18.70;99.90;;;;;;4950254;29;20209;-81
2022/05/19 06:33:17;;;;;;;32.00;27.65;;;18.70;99.90;;;;;;4950427;29;20606;-81
2022/05/19 06:35:44;;;;;;;29.83;26.70;;;18.70;99.90;;;;;;4973386;23;20240;-84
2022/05/19 06:38:11;;;;;;;31.85;27.23;;;18.70;99.90;;;;;;4952175;28;20224;-83
2022/05/19 06:40:38;;;;;;;32.63;29.05;;;18.60;99.90;;;;;;4948966;29;20207;-81
2022/05/19 06:43:09;;;;;;;38.90;29.02;;;18.60;99.90;;;;;;4949180;28;20205;-81
2022/05/19 06:45:36;;;;;;;36.58;29.88;;;18.60;99.90;;;;;;4949286;29;20229;-83
2022/05/19 06:48:05;;;;;;;29.20;24.40;;;18.60;99.90;;;;;;4949995;29;20213;-83
2022/05/19 06:50:32;;;;;;;26.13;19.55;;;18.50;99.90;;;;;;4950215;28;20314;-82
2022/05/19 06:53:03;;;;;;;21.52;19.42;;;18.50;99.90;;;;;;4950869;29;20216;-82
2022/05/19 06:55:31;;;;;;;32.83;29.23;;;18.50;99.90;;;;;;4950082;29;20216;-82
2022/05/19 06:57:58;;;;;;;23.58;21.17;;;18.50;99.90;;;;;;4950386;29;20194;-83
2022/05/19 07:00:27;;;;;;;20.02;18.13;;;18.50;99.90;;;;;;4948226;28;20216;-81
2022/05/19 07:02:56;;;;;;;16.90;15.18;;;18.50;99.90;;;;;;4968239;28;20849;-83
2022/05/19 07:05:27;;;;;;;21.30;19.05;;;18.50;99.90;;;;;;4966804;28;20870;-84
2022/05/19 07:07:54;;;;;;;17.92;16.20;;;18.50;99.90;;;;;;4953131;29;20189;-84
2022/05/19 07:10:23;;;;;;;19.33;17.58;;;18.50;99.90;;;;;;4951825;28;20211;-82
2022/05/19 07:12:52;;;;;;;18.67;16.67;;;18.50;99.90;;;;;;4951469;29;20210;-83
2022/05/19 07:15:20;;;;;;;30.20;27.20;;;18.50;99.90;;;;;;4950760;28;20606;-84
2022/05/19 07:17:48;;;;;;;27.02;24.42;;;18.50;99.90;;;;;;4950654;28;20256;-80
2022/05/19 07:23:01;;;;;;;31.52;28.52;;;18.50;99.90;;;;;;4949089;28;20232;-83
2022/05/19 07:25:28;;;;;;;27.50;24.80;;;18.60;99.90;;;;;;4951138;29;20205;-84
2022/05/19 07:27:56;;;;;;;31.45;28.27;;;18.70;99.90;;;;;;4950330;28;20240;-81
2022/05/19 07:30:23;;;;;;;26.20;23.73;;;18.70;99.90;;;;;;4950897;28;20216;-82
2022/05/19 07:32:50;;;;;;;29.38;26.52;;;18.70;99.90;;;;;;4969418;28;20862;-80
2022/05/19 07:35:18;;;;;;;33.28;30.27;;;18.80;99.90;;;;;;4953560;28;20249;-81
2022/05/19 07:37:45;;;;;;;24.80;22.50;;;18.80;99.90;;;;;;4948587;28;20229;-80
2022/05/19 07:40:14;;;;;;;26.08;23.48;;;18.80;99.90;;;;;;4949417;28;20213;-81
2022/05/19 07:42:41;;;;;;;33.83;30.48;;;18.90;99.90;;;;;;4948229;29;20213;-81
2022/05/19 07:45:09;;;;;;;34.42;31.05;;;18.90;99.90;;;;;;4948495;28;20209;-83
2022/05/19 07:47:36;;;;;;;38.95;35.08;;;19.00;99.90;;;;;;4949809;28;20213;-83
2022/05/19 07:50:03;;;;;;;34.83;31.55;;;19.10;99.90;;;;;;4950464;29;20233;-83
2022/05/19 07:52:30;;;;;;;35.42;31.75;;;19.20;99.90;;;;;;4949073;29;20216;-83
2022/05/19 07:54:57;;;;;;;34.67;31.13;;;19.30;99.90;;;;;;4950127;28;20209;-84
2022/05/19 07:57:26;;;;;;;28.13;25.63;;;19.40;99.90;;;;;;4950988;29;20418;-83
2022/05/19 07:59:53;;;;;;;31.35;28.35;;;19.40;99.90;;;;;;4948268;28;20942;-81
2022/05/19 08:02:20;;;;;;;31.90;28.88;;;19.50;99.90;;;;;;4949170;29;20260;-82
2022/05/19 08:04:47;;;;;;;28.85;25.88;;;19.50;99.90;;;;;;4958895;28;20200;-82
2022/05/19 08:07:14;;;;;;;29.75;26.80;;;19.50;99.90;;;;;;4967202;28;20229;-79
2022/05/19 08:18:02;;;;;;;38.90;35.38;;;20.20;99.90;;;;;;4947191;28;20220;-78
2022/05/19 08:20:29;;;;;;;39.25;35.72;;;20.40;99.90;;;;;;4946447;28;20528;-80
2022/05/19 08:22:57;;;;;;;32.25;29.45;;;20.80;99.90;;;;;;4946519;29;20213;-81
2022/05/19 08:25:25;;;;;;;30.38;27.42;;;20.90;99.90;;;;;;4948759;29;20209;-82
2022/05/19 08:27:54;;;;;;;28.08;25.45;;;21.10;99.90;;;;;;4947464;28;20209;-82
2022/05/19 08:30:22;;;;;;;26.23;23.60;;;21.30;99.90;;;;;;4948057;29;20206;-84
2022/05/19 08:32:48;;;;;;;29.15;24.75;;;21.50;99.90;;;;;;4964681;28;20223;-84
2022/05/19 08:35:15;;;;;;;26.98;24.52;;;21.40;99.90;;;;;;4967253;28;20240;-78
2022/05/19 08:37:42;;;;;;;19.55;17.83;;;21.50;99.90;;;;;;4967361;28;20232;-79
2022/05/19 08:40:10;;;;;;;26.02;23.55;;;21.40;99.90;;;;;;4961383;28;20205;-82
2022/05/19 08:42:42;;;;;;;24.45;22.15;;;21.30;99.90;;;;;;4948293;29;20236;-80
2022/05/19 08:45:20;;;;;;;26.17;23.67;;;21.10;99.90;;;;;;4948088;29;20190;-80
2022/05/19 08:48:00;;;;;;;22.58;20.33;;;21.10;99.90;;;;;;4948542;28;20212;-79
2022/05/19 08:50:32;;;;;;;22.25;20.20;;;20.90;99.90;;;;;;4947851;29;20199;-80
2022/05/19 08:52:59;;;;;;;21.27;19.05;;;21.00;99.90;;;;;;4947817;28;20213;-79
2022/05/19 08:55:28;;;;;;;26.38;23.67;;;21.10;99.90;;;;;;4947762;28;20673;-80
2022/05/19 08:58:02;;;;;;;21.92;19.92;;;21.30;99.90;;;;;;4948668;29;20229;-85
2022/05/19 09:00:37;;;;;;;23.15;20.65;;;21.30;99.90;;;;;;4949760;28;20216;-80
2022/05/19 09:03:33;;;;;;;20.98;18.98;;;21.30;99.90;;;;;;4948790;28;20222;-82
2022/05/19 09:06:23;;;;;;;19.63;17.63;;;21.40;99.90;;;;;;4965753;28;20208;-82
2022/05/19 09:09:11;;;;;;;23.55;21.42;;;21.40;99.90;;;;;;4967357;28;20278;-82
2022/05/19 09:11:46;;;;;;;22.70;20.30;;;21.50;99.90;;;;;;4957089;28;20205;-82
2022/05/19 09:14:21;;;;;;;21.38;19.17;;;21.60;99.90;;;;;;4946225;28;20249;-84
2022/05/19 09:16:51;;;;;;;20.23;16.45;;;21.90;99.90;;;;;;4960445;28;20663;-84
2022/05/19 09:19:22;;;;;;;19.35;16.55;;;22.10;99.90;;;;;;4967609;28;20310;-80
2022/05/19 09:22:03;;;;;;;17.23;15.63;;;22.40;99.90;;;;;;4967182;28;20205;-82
2022/05/19 09:24:29;;;;;;;17.63;16.00;;;22.80;99.90;;;;;;4957767;28;20209;-81
2022/05/19 09:26:59;;;;;;;16.40;14.77;;;23.30;99.90;;;;;;4947737;28;20452;-82
2022/05/19 09:29:31;;;;;;;14.38;12.98;;;23.70;99.90;;;;;;4947128;29;20213;-83
2022/05/19 09:32:08;;;;;;;13.82;12.52;;;23.90;99.90;;;;;;4947223;29;20570;-82
2022/05/19 09:34:36;;;;;;;11.38;10.27;;;24.30;99.90;;;;;;4955037;28;20251;-82
2022/05/19 09:37:10;;;;;;;10.02;9.00;;;24.40;99.90;;;;;;4965629;28;20376;-82
2022/05/19 09:39:49;;;;;;;10.70;9.45;;;24.50;99.90;;;;;;4965791;28;20208;-83
2022/05/19 09:42:20;;;;;;;12.95;11.73;;;24.40;99.90;;;;;;4968080;28;20342;-83
2022/05/19 09:44:52;;;;;;;11.07;10.02;;;24.30;99.90;;;;;;4953173;28;20209;-82
2022/05/19 09:47:27;;;;;;;14.40;12.95;;;24.40;99.90;;;;;;4950780;29;20240;-86
2022/05/19 09:49:57;;;;;;;15.50;13.90;;;24.40;99.90;;;;;;4950561;29;20217;-85
2022/05/19 09:52:27;;;;;;;13.05;11.68;;;24.30;99.90;;;;;;4950856;28;20220;-82
2022/05/19 09:54:58;;;;;;;10.63;9.18;;;24.10;99.90;;;;;;4951350;29;20228;-80
2022/05/19 09:57:33;;;;;;;11.38;10.20;;;24.10;99.90;;;;;;4958751;28;20265;-82
2022/05/19 10:00:06;;;;;;;11.30;9.18;;;24.30;99.90;;;;;;4950112;28;20665;-81
2022/05/19 10:02:38;;;;;;;13.82;9.30;;;24.50;99.90;;;;;;4951118;28;20217;-83
2022/05/19 10:05:20;;;;;;;8.88;7.93;;;24.80;99.90;;;;;;4952441;28;20217;-81
2022/05/19 10:07:51;;;;;;;9.40;8.43;;;25.30;99.90;;;;;;4954819;29;20213;-84
2022/05/19 10:10:21;;;;;;;10.85;9.23;;;25.50;99.90;;;;;;4958795;28;20220;-87
2022/05/19 10:12:49;;;;;;;12.20;10.52;;;25.50;99.90;;;;;;4961395;28;20205;-85
2022/05/19 10:15:22;;;;;;;11.88;10.60;;;25.50;99.90;;;;;;4973793;28;20216;-84
2022/05/19 10:18:01;;;;;;;11.10;9.73;;;25.40;99.90;;;;;;4973026;28;20574;-86
2022/05/19 10:20:30;;;;;;;11.63;10.52;;;25.40;99.90;;;;;;4955363;28;20224;-82
2022/05/19 10:23:24;;;;;;;14.07;8.77;;;25.20;99.90;;;;;;4954743;29;20637;-88
2022/05/19 10:26:12;;;;;;;10.98;8.73;;;25.10;99.90;;;;;;4953832;29;20256;-87
2022/05/19 10:32:09;;;;;;;9.63;8.73;;;24.60;99.90;;;;;;4954603;29;20209;-86
2022/05/19 10:34:53;;;;;;;7.78;6.53;;;24.30;99.90;;;;;;4952576;28;20956;-82
2022/05/19 10:37:32;;;;;;;7.03;6.18;;;24.20;99.90;;;;;;4953016;28;20244;-88
2022/05/19 10:40:15;;;;;;;8.40;6.88;;;24.10;99.90;;;;;;4952485;28;20209;-84
2022/05/19 10:42:52;;;;;;;7.35;6.65;;;23.90;99.90;;;;;;4952806;28;20804;-88
2022/05/19 10:45:27;;;;;;;24.95;11.07;;;23.80;99.90;;;;;;4954603;29;20564;-93
2022/05/19 10:48:17;;;;;;;24.27;12.13;;;23.50;99.90;;;;;;4955488;28;20216;-83
2022/05/19 10:50:53;;;;;;;16.23;9.27;;;23.10;99.90;;;;;;4955586;28;20240;-91
2022/05/19 10:53:55;;;;;;;15.60;8.50;;;22.60;99.90;;;;;;4954892;29;20197;-95
2022/05/19 10:56:46;;;;;;;12.35;7.40;;;22.10;99.90;;;;;;4933768;29;20200;-90
2022/05/19 10:59:27;;;;;;;12.10;7.30;;;21.80;99.90;;;;;;4955534;28;20213;-94
2022/05/19 11:02:05;;;;;;;13.27;8.20;;;21.70;99.90;;;;;;4955898;29;20256;-93
2022/05/19 11:05:12;;;;;;;16.05;8.05;;;21.40;99.90;;;;;;4955855;29;20217;-92
2022/05/19 11:07:49;;;;;;;15.63;8.32;;;21.20;99.90;;;;;;4963703;28;20594;-91
2022/05/19 11:10:28;;;;;;;13.65;7.43;;;21.00;99.90;;;;;;4955639;29;20237;-91
2022/05/19 11:13:04;;;;;;;11.50;7.28;;;20.90;99.90;;;;;;4955071;29;20201;-91
2022/05/19 11:15:38;;;;;;;11.27;6.55;;;20.80;99.90;;;;;;4955178;29;20236;-93
2022/05/19 11:18:12;;;;;;;8.43;5.60;;;20.80;99.90;;;;;;4971419;28;20620;-86
2022/05/19 11:20:47;;;;;;;10.02;6.15;;;20.70;99.90;;;;;;4974638;28;20208;-91
2022/05/19 11:23:22;;;;;;;16.20;8.65;;;20.70;99.90;;;;;;4974781;28;20204;-89
2022/05/19 11:28:45;;;;;;;8.82;7.47;;;20.50;99.90;;;;;;4975310;28;20289;-89
2022/05/19 11:31:16;;;;;;;11.48;8.07;;;20.40;99.90;;;;;;4968612;28;20213;-90
2022/05/19 11:33:47;;;;;;;18.20;9.80;;;20.20;99.90;;;;;;4956881;29;20616;-90
2022/05/19 11:36:23;;;;;;;15.23;9.77;;;20.20;99.90;;;;;;4960189;28;20236;-89
2022/05/19 11:38:58;;;;;;;18.58;10.77;;;20.10;99.90;;;;;;4975994;28;20232;-88
2022/05/19 11:41:27;;;;;;;23.10;12.02;;;20.10;99.90;;;;;;4980220;28;20189;-87
2022/05/19 11:43:59;;;;;;;21.70;12.13;;;20.00;99.90;;;;;;4973876;29;20221;-90
2022/05/19 11:46:33;;;;;;;20.60;10.73;;;20.00;99.90;;;;;;4961557;28;20236;-88
2022/05/19 11:57:33;;;;;;;22.85;11.35;;;19.80;99.90;;;;;;4979066;28;20236;-89
2022/05/19 12:00:02;;;;;;;20.63;10.15;;;19.80;99.90;;;;;;4971839;28;20272;-92
2022/05/19 12:02:37;;;;;;;15.50;8.30;;;19.80;99.90;;;;;;4961773;28;21201;-86
2022/05/19 12:05:10;;;;;;;18.58;7.00;;;19.70;99.90;;;;;;4972007;28;20208;-94
2022/05/19 12:07:50;;;;;;;21.17;7.68;;;19.70;99.90;;;;;;4972021;28;20518;-90
2022/05/19 12:10:26;;;;;;;19.20;6.80;;;19.50;99.90;;;;;;4972491;28;20208;-83
2022/05/19 12:13:00;;;;;;;20.45;6.80;;;19.30;99.90;;;;;;4973145;28;20212;-80
2022/05/19 12:15:54;;;;;;;22.33;7.38;;;19.10;99.90;;;;;;4978690;28;20505;-77
2022/05/19 12:18:43;;;;;;;16.17;6.30;;;18.90;99.90;;;;;;4975919;28;20250;-78
2022/05/19 12:21:39;;;;;;;20.08;7.57;;;18.70;99.90;;;;;;4972480;28;20215;-89
2022/05/19 12:24:12;;;;;;;15.70;6.40;;;18.60;99.90;;;;;;4973889;28;20212;-95
2022/05/19 12:26:54;;;;;;;17.83;6.40;;;18.40;99.90;;;;;;4975671;28;20219;-80
2022/05/19 12:29:39;;;;;;;18.48;8.18;;;18.40;99.90;;;;;;4977990;28;20211;-96
2022/05/19 12:32:15;;;;;;;27.35;8.90;;;18.30;99.90;;;;;;4974260;28;20251;-96
2022/05/19 12:34:47;;;;;;;24.38;9.02;;;18.20;99.90;;;;;;4974030;28;20243;-84
2022/05/19 12:37:35;;;;;;;19.63;8.13;;;18.20;99.90;;;;;;4970664;28;20217;-95
2022/05/19 12:40:38;;;;;;;17.85;8.65;;;18.20;99.90;;;;;;4973927;28;20209;-87
2022/05/19 12:43:44;;;;;;;20.52;8.50;;;18.10;99.90;;;;;;4968739;28;20295;-95
2022/05/19 12:46:15;;;;;;;18.25;7.85;;;18.20;99.90;;;;;;4966364;28;20228;-95
2022/05/19 12:48:51;;;;;;;25.80;9.90;;;18.20;99.90;;;;;;4970326;28;20208;-94
2022/05/19 12:51:28;;;;;;;19.90;7.70;;;18.20;99.90;;;;;;4954817;29;20213;-95
2022/05/19 12:54:16;;;;;;;28.75;8.57;;;18.20;99.90;;;;;;4966215;28;20219;-95
2022/05/19 12:56:58;;;;;;;16.65;8.40;;;18.30;99.90;;;;;;4968242;28;20540;-93
2022/05/19 12:59:39;;;;;;;17.70;7.97;;;18.30;99.90;;;;;;4957557;28;20287;-96
2022/05/19 13:02:11;;;;;;;13.70;7.90;;;18.30;99.90;;;;;;4952477;28;20848;-95
2022/05/19 13:04:44;;;;;;;19.40;8.60;;;18.40;99.90;;;;;;4970392;28;20216;-92
2022/05/19 13:07:18;;;;;;;14.48;7.38;;;18.50;99.90;;;;;;4971685;28;20212;-94
2022/05/19 13:09:55;;;;;;;13.52;7.70;;;18.60;99.90;;;;;;4952778;29;20299;-91
2022/05/19 13:12:25;;;;;;;17.95;9.25;;;18.70;99.90;;;;;;4953446;28;20215;-95
2022/05/19 13:14:56;;;;;;;16.00;8.27;;;18.90;99.90;;;;;;4954721;28;20212;-95
2022/05/19 13:17:33;;;;;;;14.35;8.13;;;19.00;99.90;;;;;;4967745;28;20213;-96